createdAt,value
2023-05-21T00:02:12.058Z,20.77
2023-05-21T00:07:10.152Z,21.13
2023-05-21T00:12:09.498Z,21.43
2023-05-21T00:17:09.157Z,22.80
2023-05-21T00:22:07.520Z,22.80
2023-05-21T00:27:06.029Z,23.00
2023-05-21T00:32:04.454Z,22.50
2023-05-21T00:37:05.106Z,21.83
2023-05-21T00:42:04.091Z,23.20
2023-05-21T00:47:02.629Z,22.87
2023-05-21T00:52:01.839Z,23.83
2023-05-21T00:57:02.813Z,19.53
2023-05-21T01:02:05.701Z,20.03
2023-05-21T01:07:03.795Z,23.70
2023-05-21T01:12:04.373Z,24.80
2023-05-21T01:17:03.626Z,21.00
2023-05-21T01:22:06.995Z,20.30
2023-05-21T01:27:10.658Z,22.50
2023-05-21T01:32:17.719Z,20.53
2023-05-21T01:37:22.812Z,23.60
2023-05-21T01:42:25.076Z,22.30
2023-05-21T01:47:25.040Z,22.67
2023-05-21T01:52:24.103Z,19.10
2023-05-21T01:57:23.839Z,21.13
2023-05-21T02:02:22.378Z,23.93
2023-05-21T02:07:20.773Z,22.63
2023-05-21T02:12:19.065Z,24.40
2023-05-21T02:17:18.755Z,20.70
2023-05-21T02:22:17.443Z,21.37
2023-05-21T02:27:17.865Z,23.27
2023-05-21T02:32:17.074Z,20.10
2023-05-21T02:37:17.704Z,24.97
2023-05-21T02:42:16.324Z,25.57
2023-05-21T02:47:15.003Z,31.43
2023-05-21T02:52:13.732Z,23.93
2023-05-21T02:57:13.929Z,24.80
2023-05-21T03:02:13.403Z,26.30
2023-05-21T03:07:14.168Z,31.20
2023-05-21T03:12:13.877Z,27.27
2023-05-21T03:17:15.287Z,30.00
2023-05-21T03:22:14.016Z,27.80
2023-05-21T03:27:13.728Z,29.63
2023-05-21T03:32:12.354Z,33.90
2023-05-21T03:37:11.114Z,29.70
2023-05-21T03:42:09.829Z,30.63
2023-05-21T03:47:18.146Z,29.13
2023-05-21T03:52:16.618Z,28.00
2023-05-21T03:57:15.124Z,36.17
2023-05-21T04:02:13.368Z,27.93
2023-05-21T04:07:15.540Z,31.40
2023-05-21T04:12:14.084Z,31.90
2023-05-21T04:17:12.859Z,30.17
2023-05-21T04:22:13.253Z,32.03
2023-05-21T04:27:11.698Z,29.60
2023-05-21T04:32:11.809Z,31.10
2023-05-21T04:37:13.319Z,30.20
2023-05-21T04:42:11.958Z,27.60
2023-05-21T04:47:10.689Z,30.03
2023-05-21T04:52:09.528Z,29.37
2023-05-21T04:57:09.427Z,24.77
2023-05-21T05:02:07.699Z,30.13
2023-05-21T05:07:06.378Z,25.80
2023-05-21T05:12:04.772Z,29.73
2023-05-21T05:17:05.645Z,28.50
2023-05-21T05:22:04.056Z,31.53
2023-05-21T05:27:02.858Z,28.43
2023-05-21T05:32:01.240Z,29.20
2023-05-21T05:37:03.143Z,34.20
2023-05-21T05:42:01.473Z,31.47
2023-05-21T05:47:00.065Z,27.90
2023-05-21T05:52:01.300Z,23.60
2023-05-21T05:56:59.639Z,26.70
2023-05-21T06:01:59.198Z,26.20
2023-05-21T06:06:58.169Z,27.67
2023-05-21T06:11:57.621Z,25.80
2023-05-21T06:16:55.936Z,30.30
2023-05-21T06:21:54.714Z,28.43
2023-05-21T06:26:53.065Z,26.43
2023-05-21T06:31:53.264Z,24.97
2023-05-21T06:36:52.511Z,23.90
2023-05-21T06:41:51.574Z,24.20
2023-05-21T06:47:10.233Z,27.40
2023-05-21T06:52:08.676Z,28.63
2023-05-21T06:57:07.457Z,31.40
2023-05-21T07:02:06.206Z,22.70
2023-05-21T07:07:06.297Z,26.80
2023-05-21T07:12:04.949Z,25.70
2023-05-21T07:17:04.221Z,22.23
2023-05-21T07:22:02.725Z,20.77
2023-05-21T07:27:11.331Z,20.77
2023-05-21T07:32:16.608Z,21.27
2023-05-21T07:37:14.868Z,21.00
2023-05-21T07:42:14.663Z,20.43
2023-05-21T07:47:12.798Z,19.70
2023-05-21T07:52:11.361Z,17.90
2023-05-21T07:57:09.697Z,18.83
2023-05-21T08:02:35.289Z,18.90
2023-05-21T08:07:33.632Z,20.80
2023-05-21T08:12:32.036Z,17.83
2023-05-21T08:17:30.627Z,16.00
2023-05-21T08:22:30.455Z,15.23
2023-05-21T08:27:28.735Z,19.63
2023-05-21T08:32:27.473Z,16.73
2023-05-21T08:37:26.422Z,20.43
2023-05-21T08:42:50.953Z,12.30
2023-05-21T08:48:01.044Z,15.27
2023-05-21T08:53:07.488Z,15.27
2023-05-21T08:58:15.929Z,14.10
2023-05-21T09:03:15.623Z,14.47
2023-05-21T09:08:17.997Z,13.93
2023-05-21T09:13:41.438Z,19.37
2023-05-21T09:18:45.976Z,19.47
2023-05-21T09:23:56.133Z,10.97
2023-05-21T09:28:59.423Z,11.00
2023-05-21T09:33:57.798Z,12.43
2023-05-21T09:39:00.104Z,12.10
2023-05-21T09:44:02.233Z,14.33
2023-05-21T09:49:01.521Z,14.13
2023-05-21T09:54:00.128Z,9.63
2023-05-21T09:59:00.622Z,8.90
2023-05-21T10:04:01.815Z,10.73
2023-05-21T10:09:05.783Z,10.50
2023-05-21T10:14:07.538Z,9.23
2023-05-21T10:19:11.152Z,14.53
2023-05-21T10:24:10.738Z,9.70
2023-05-21T10:29:10.228Z,10.80
2023-05-21T10:34:11.514Z,8.60
2023-05-21T10:39:10.971Z,12.97
2023-05-21T10:44:18.643Z,10.53
2023-05-21T10:49:43.325Z,11.33
2023-05-21T10:55:09.014Z,8.50
2023-05-21T11:00:09.296Z,8.63
2023-05-21T11:05:09.436Z,6.00
2023-05-21T11:10:31.552Z,8.13
2023-05-21T11:15:29.770Z,13.47
2023-05-21T11:20:36.164Z,7.77
2023-05-21T11:25:34.489Z,8.70
2023-05-21T11:30:34.485Z,7.20
2023-05-21T11:35:37.729Z,7.30
2023-05-21T11:40:37.345Z,7.67
2023-05-21T11:45:36.229Z,8.30
2023-05-21T11:50:37.510Z,6.00
2023-05-21T11:55:39.989Z,6.60
2023-05-21T12:00:40.648Z,7.40
2023-05-21T12:05:47.451Z,10.77
2023-05-21T12:10:46.254Z,13.10
2023-05-21T12:15:46.681Z,8.63
2023-05-21T12:20:46.346Z,8.33
2023-05-21T12:25:44.661Z,6.37
2023-05-21T12:30:43.026Z,7.40
2023-05-21T12:35:41.367Z,11.70
2023-05-21T12:40:41.596Z,7.40
2023-05-21T12:45:42.787Z,6.40
2023-05-21T12:50:42.320Z,8.00
2023-05-21T12:55:41.962Z,9.07
2023-05-21T13:00:43.277Z,6.00
2023-05-21T13:05:42.517Z,5.87
2023-05-21T13:10:42.132Z,10.30
2023-05-21T13:15:40.251Z,7.87
2023-05-21T13:20:39.067Z,8.03
2023-05-21T13:25:37.541Z,9.10
2023-05-21T13:30:37.787Z,6.30
2023-05-21T13:35:36.665Z,5.57
2023-05-21T13:40:37.364Z,8.30
2023-05-21T13:45:39.022Z,6.77
2023-05-21T13:50:37.286Z,6.30
2023-05-21T13:55:36.191Z,13.27
2023-05-21T14:00:34.624Z,6.83
2023-05-21T14:05:34.364Z,8.13
2023-05-21T14:10:32.677Z,9.40
2023-05-21T14:15:32.455Z,7.73
2023-05-21T14:20:30.677Z,9.50
2023-05-21T14:25:30.246Z,7.33
2023-05-21T14:30:28.520Z,12.60
2023-05-21T14:35:26.623Z,7.33
2023-05-21T14:40:24.989Z,8.13
2023-05-21T14:45:24.598Z,9.40
2023-05-21T14:50:22.870Z,8.47
2023-05-21T14:55:22.347Z,5.97
2023-05-21T15:00:20.949Z,7.73
2023-05-21T15:05:20.705Z,7.03
2023-05-21T15:10:19.240Z,9.57
2023-05-21T15:15:18.031Z,7.97
2023-05-21T15:20:16.535Z,7.77
2023-05-21T15:25:19.197Z,8.17
2023-05-21T15:30:17.640Z,9.13
2023-05-21T15:35:16.315Z,7.00
2023-05-21T15:40:16.160Z,7.20
2023-05-21T15:45:14.339Z,5.50
2023-05-21T15:50:13.013Z,4.97
2023-05-21T15:55:11.414Z,8.00
2023-05-21T16:00:12.716Z,7.00
2023-05-21T16:05:11.486Z,5.80
2023-05-21T16:10:11.556Z,11.03
2023-05-21T16:15:13.900Z,5.73
2023-05-21T16:20:13.387Z,9.53
2023-05-21T16:25:11.697Z,9.20
2023-05-21T16:30:12.146Z,4.70
2023-05-21T16:35:10.568Z,7.60
2023-05-21T16:40:10.637Z,7.47
2023-05-21T16:45:13.488Z,10.03
2023-05-21T16:50:11.797Z,8.13
2023-05-21T16:55:10.658Z,8.80
2023-05-21T17:00:09.838Z,8.20
2023-05-21T17:05:10.173Z,4.90
2023-05-21T17:10:09.284Z,5.37
2023-05-21T17:15:08.917Z,12.83
2023-05-21T17:20:10.099Z,11.13
2023-05-21T17:25:10.653Z,9.07
2023-05-21T17:30:10.455Z,8.87
2023-05-21T17:35:10.862Z,4.50
2023-05-21T17:40:10.316Z,8.30
2023-05-21T17:45:09.989Z,10.27
2023-05-21T17:50:11.628Z,6.73
2023-05-21T17:55:10.588Z,8.80
2023-05-21T18:00:10.357Z,5.93
2023-05-21T18:05:12.554Z,5.10
2023-05-21T18:10:10.939Z,6.70
2023-05-21T18:15:10.395Z,5.30
2023-05-21T18:20:09.602Z,9.50
2023-05-21T18:25:13.641Z,20.93
2023-05-21T18:30:12.721Z,6.20
2023-05-21T18:35:13.655Z,9.13
2023-05-21T18:40:15.485Z,7.70
2023-05-21T18:45:28.602Z,6.77
2023-05-21T18:50:29.944Z,5.27
2023-05-21T18:55:29.410Z,6.70
2023-05-21T19:00:27.712Z,5.70
2023-05-21T19:05:26.045Z,6.07
2023-05-21T19:10:24.689Z,15.57
2023-05-21T19:15:25.734Z,5.03
2023-05-21T19:20:25.956Z,4.90
2023-05-21T19:25:24.665Z,7.00
2023-05-21T19:30:24.438Z,12.30
2023-05-21T19:35:23.321Z,8.67
2023-05-21T19:40:22.760Z,6.47
2023-05-21T19:45:21.624Z,6.07
2023-05-21T19:50:21.398Z,5.90
2023-05-21T19:55:20.347Z,6.30
2023-05-21T20:00:19.168Z,7.83
2023-05-21T20:05:18.695Z,6.90
2023-05-21T20:10:18.458Z,5.13
2023-05-21T20:15:18.189Z,6.60
2023-05-21T20:20:16.926Z,9.20
2023-05-21T20:25:15.251Z,8.27
2023-05-21T20:30:15.261Z,11.30
2023-05-21T20:35:13.877Z,10.43
2023-05-21T20:40:14.803Z,5.97
2023-05-21T20:45:16.007Z,12.80
2023-05-21T20:50:14.521Z,6.40
2023-05-21T20:55:12.830Z,5.13
2023-05-21T21:00:11.963Z,6.50
2023-05-21T21:05:12.803Z,6.53
2023-05-21T21:10:11.505Z,8.43
2023-05-21T21:15:10.882Z,5.20
2023-05-21T21:20:12.980Z,8.63
2023-05-21T21:25:11.438Z,6.13
2023-05-21T21:30:10.801Z,4.40
2023-05-21T21:35:10.119Z,4.70
2023-05-21T21:40:11.126Z,6.03
2023-05-21T21:45:10.732Z,8.70
2023-05-21T21:50:09.838Z,9.33
2023-05-21T21:55:11.637Z,6.30
2023-05-21T22:00:15.965Z,5.17
2023-05-21T22:05:15.140Z,7.43
2023-05-21T22:10:15.468Z,11.03
2023-05-21T22:15:20.845Z,7.77
2023-05-21T22:20:19.417Z,9.43
2023-05-21T22:25:19.157Z,6.30
2023-05-21T22:30:17.625Z,6.43
2023-05-21T22:35:18.922Z,8.40
2023-05-21T22:40:18.813Z,6.20
2023-05-21T22:45:18.897Z,7.03
2023-05-21T22:50:18.233Z,6.53
2023-05-21T22:55:19.148Z,6.40
2023-05-21T23:00:19.284Z,5.83
2023-05-21T23:05:17.658Z,10.63
2023-05-21T23:10:16.097Z,5.50
2023-05-21T23:15:16.044Z,7.50
2023-05-21T23:20:15.600Z,5.90
2023-05-21T23:25:13.922Z,5.20
2023-05-21T23:30:12.768Z,6.00
2023-05-21T23:35:14.563Z,7.10
2023-05-21T23:40:13.695Z,5.27
2023-05-21T23:45:12.684Z,7.37
2023-05-21T23:50:12.715Z,10.90
2023-05-21T23:55:14.695Z,4.83
